Aviation Digital Data Service (ADDS)

Output produced by METARs form (0329 UTC 20 March 2019)
found at http://www.aviationweather.gov/metar/data/
 
Forecast for: LWSK (SKOPJE/PETROVAC , MK)
Text: TAF LWSK 200230Z 2003/2103 01008KT CAVOK
Forecast period: 0300 UTC 20 March 2019 to 0300 UTC 21 March 2019
Forecast type: FROM: standard forecast or significant change
Winds: from the N (10 degrees) at 9 MPH (8 knots; 4.1 m/s)
Visibility: 6 or more miles 10+ km)
Ceiling: unknown
Clouds: missing
Weather: NSW  (no significant weather)
Text: TEMPO 2009/2020 02018JT
Forecast period: 0900 to 2000 UTC 20 March 2019
Forecast type: TEMPORARY: The following changes expected for less than half the time period
Visibility: missing
Ceiling: unknown
Clouds: missing
Weather: no significant weather forecast for this period